createdAt,value
2019-02-24T00:01:55.085Z,9.13
2019-02-24T00:05:03.701Z,8.27
2019-02-24T00:08:13.481Z,8.07
2019-02-24T00:11:21.974Z,8.83
2019-02-24T00:14:30.621Z,9.17
2019-02-24T00:17:39.323Z,9.20
2019-02-24T00:20:49.098Z,8.83
2019-02-24T00:24:08.031Z,9.00
2019-02-24T00:27:16.831Z,9.40
2019-02-24T00:30:25.569Z,8.90
2019-02-24T00:33:34.641Z,9.47
2019-02-24T00:36:42.917Z,8.60
2019-02-24T00:39:52.077Z,8.93
2019-02-24T00:43:00.676Z,8.27
2019-02-24T00:46:09.282Z,9.07
2019-02-24T00:49:17.954Z,8.63
2019-02-24T00:52:26.559Z,8.77
2019-02-24T00:55:35.134Z,8.47
2019-02-24T00:58:43.833Z,9.13
2019-02-24T01:02:02.652Z,8.60
2019-02-24T01:05:11.270Z,8.83
2019-02-24T01:08:20.030Z,9.00
2019-02-24T01:11:28.602Z,9.07
2019-02-24T01:14:37.220Z,10.03
2019-02-24T01:17:45.822Z,9.63
2019-02-24T01:20:54.326Z,9.37
2019-02-24T01:24:13.194Z,8.57
2019-02-24T01:27:21.777Z,9.00
2019-02-24T01:30:30.398Z,9.73
2019-02-24T01:33:39.001Z,10.07
2019-02-24T01:36:47.587Z,9.20
2019-02-24T01:39:56.127Z,9.23
2019-02-24T01:43:14.932Z,9.10
2019-02-24T01:46:24.617Z,9.53
2019-02-24T01:49:33.149Z,9.63
2019-02-24T01:52:51.901Z,9.47
2019-02-24T01:56:00.408Z,9.50
2019-02-24T01:59:09.130Z,9.87
2019-02-24T02:02:17.796Z,9.93
2019-02-24T02:05:26.392Z,9.90
2019-02-24T02:08:35.017Z,9.50
2019-02-24T02:11:53.749Z,10.43
2019-02-24T02:15:02.401Z,9.20
2019-02-24T02:18:10.957Z,10.17
2019-02-24T02:21:19.542Z,10.47
2019-02-24T02:24:29.239Z,9.57
2019-02-24T02:27:48.194Z,9.70
2019-02-24T02:30:57.007Z,10.50
2019-02-24T02:34:05.505Z,9.70
2019-02-24T02:37:14.000Z,9.63
2019-02-24T02:40:22.670Z,10.87
2019-02-24T02:43:31.140Z,10.50
2019-02-24T02:46:50.382Z,11.03
2019-02-24T02:50:09.622Z,10.73
2019-02-24T02:53:19.231Z,10.03
2019-02-24T02:56:27.836Z,10.10
2019-02-24T02:59:36.502Z,10.73
2019-02-24T03:02:45.094Z,9.87
2019-02-24T03:06:18.416Z,10.97
2019-02-24T03:09:26.939Z,10.13
2019-02-24T03:12:35.543Z,10.13
2019-02-24T03:15:44.152Z,11.03
2019-02-24T03:18:53.123Z,10.47
2019-02-24T03:22:01.721Z,10.67
2019-02-24T03:25:10.410Z,10.13
2019-02-24T03:28:19.089Z,10.80
2019-02-24T03:31:27.694Z,11.30
2019-02-24T03:34:46.410Z,10.80
2019-02-24T03:37:54.905Z,11.53
2019-02-24T03:41:03.517Z,11.73
2019-02-24T03:44:12.106Z,11.23
2019-02-24T03:47:20.713Z,11.47
2019-02-24T03:50:29.446Z,11.63
2019-02-24T03:53:48.167Z,12.23
2019-02-24T03:56:56.776Z,12.03
2019-02-24T04:00:06.108Z,11.63
2019-02-24T04:03:25.126Z,12.07
2019-02-24T04:06:33.729Z,12.43
2019-02-24T04:09:42.299Z,11.20
2019-02-24T04:12:50.898Z,12.27
2019-02-24T04:15:59.496Z,11.73
2019-02-24T04:19:08.015Z,11.80
2019-02-24T04:22:26.874Z,12.10
2019-02-24T04:25:35.389Z,11.53
2019-02-24T04:28:43.928Z,12.47
2019-02-24T04:31:52.427Z,12.00
2019-02-24T04:35:00.915Z,12.97
2019-02-24T04:38:19.934Z,11.53
2019-02-24T04:41:28.440Z,12.57
2019-02-24T04:44:37.025Z,12.10
2019-02-24T04:47:45.611Z,12.60
2019-02-24T04:50:54.262Z,11.90
2019-02-24T04:54:02.852Z,12.07
2019-02-24T04:57:21.561Z,12.77
2019-02-24T05:00:30.217Z,13.37
2019-02-24T05:03:38.718Z,12.57
2019-02-24T05:06:47.272Z,12.27
2019-02-24T05:09:55.972Z,13.30
2019-02-24T05:13:04.561Z,12.87
2019-02-24T05:16:23.288Z,13.13
2019-02-24T05:19:31.976Z,12.33
2019-02-24T05:22:40.566Z,11.83
2019-02-24T05:25:49.164Z,12.20
2019-02-24T05:28:57.860Z,13.03
2019-02-24T05:32:06.319Z,12.30
2019-02-24T05:35:25.079Z,12.47
2019-02-24T05:38:33.747Z,14.00
2019-02-24T05:41:42.312Z,12.80
2019-02-24T05:44:50.892Z,13.30
2019-02-24T05:47:59.487Z,12.50
2019-02-24T05:51:08.049Z,13.20
2019-02-24T05:54:26.808Z,13.03
2019-02-24T05:57:35.283Z,13.37
2019-02-24T06:00:43.958Z,13.10
2019-02-24T06:03:52.445Z,13.27
2019-02-24T06:07:01.041Z,13.57
2019-02-24T06:10:19.861Z,13.90
2019-02-24T06:13:28.322Z,13.90
2019-02-24T06:16:36.915Z,14.57
2019-02-24T06:19:45.486Z,14.77
2019-02-24T06:23:13.239Z,13.40
2019-02-24T06:26:21.833Z,14.03
2019-02-24T06:29:43.779Z,14.00
2019-02-24T06:32:52.345Z,13.27
2019-02-24T06:36:01.127Z,14.33
2019-02-24T06:39:10.406Z,13.33
2019-02-24T06:42:19.197Z,13.47
2019-02-24T06:45:28.451Z,13.60
2019-02-24T06:48:50.501Z,13.77
2019-02-24T06:52:09.464Z,13.87
2019-02-24T06:55:18.050Z,14.53
2019-02-24T06:58:26.587Z,14.77
2019-02-24T07:01:35.193Z,15.70
2019-02-24T07:04:43.654Z,14.13
2019-02-24T07:08:02.398Z,14.23
2019-02-24T07:11:11.139Z,13.17
2019-02-24T07:14:19.708Z,14.17
2019-02-24T07:17:28.193Z,13.87
2019-02-24T07:20:36.834Z,14.97
2019-02-24T07:23:45.506Z,13.83
2019-02-24T07:26:54.079Z,14.70
2019-02-24T07:30:13.055Z,13.93
2019-02-24T07:33:21.533Z,13.23
2019-02-24T07:36:30.110Z,14.63
2019-02-24T07:39:38.723Z,13.70
2019-02-24T07:42:47.205Z,15.03
2019-02-24T07:45:55.796Z,13.73
2019-02-24T07:49:14.807Z,14.17
2019-02-24T07:52:23.432Z,13.73
2019-02-24T07:55:31.999Z,13.80
2019-02-24T07:58:40.601Z,14.03
2019-02-24T08:01:49.128Z,13.83
2019-02-24T08:04:57.614Z,13.33
2019-02-24T08:08:16.878Z,12.83
2019-02-24T08:11:35.875Z,13.83
2019-02-24T08:14:44.356Z,12.80
2019-02-24T08:17:52.984Z,13.60
2019-02-24T08:21:01.670Z,13.87
2019-02-24T08:24:10.385Z,12.40
2019-02-24T08:27:18.857Z,13.90
2019-02-24T08:30:41.589Z,13.07
2019-02-24T08:33:47.944Z,13.10
2019-02-24T08:36:56.532Z,13.27
2019-02-24T08:40:05.634Z,12.93
2019-02-24T08:43:14.128Z,12.60
2019-02-24T08:46:22.695Z,12.77
2019-02-24T08:49:31.238Z,12.87
2019-02-24T08:52:39.743Z,13.20
2019-02-24T08:55:58.578Z,13.80
2019-02-24T08:59:07.184Z,12.20
2019-02-24T09:02:15.801Z,13.53
2019-02-24T09:05:24.471Z,13.80
2019-02-24T09:08:33.128Z,13.53
2019-02-24T09:11:41.620Z,13.23
2019-02-24T09:15:00.362Z,12.67
2019-02-24T09:18:09.127Z,12.13
2019-02-24T09:21:18.714Z,12.47
2019-02-24T09:24:27.295Z,12.53
2019-02-24T09:27:46.187Z,12.23
2019-02-24T09:31:00.753Z,11.47
2019-02-24T09:34:05.017Z,12.77
2019-02-24T09:37:13.627Z,12.40
2019-02-24T09:40:22.236Z,13.00
2019-02-24T09:43:30.855Z,13.00
2019-02-24T09:46:39.552Z,13.37
2019-02-24T09:49:48.184Z,12.90
2019-02-24T09:53:07.309Z,12.43
2019-02-24T09:56:17.007Z,12.27
2019-02-24T09:59:27.102Z,12.83
2019-02-24T10:02:35.779Z,12.57
2019-02-24T10:05:44.391Z,12.70
2019-02-24T10:09:03.521Z,13.20
2019-02-24T10:12:14.095Z,12.60
2019-02-24T10:15:21.013Z,11.60
2019-02-24T10:18:29.581Z,12.27
2019-02-24T10:21:38.208Z,12.97
2019-02-24T10:24:46.811Z,13.53
2019-02-24T10:27:55.452Z,13.10
2019-02-24T10:31:03.971Z,12.80
2019-02-24T10:34:12.699Z,12.50
2019-02-24T10:37:21.337Z,12.83
2019-02-24T10:40:40.429Z,12.57
2019-02-24T10:43:49.057Z,12.90
2019-02-24T10:46:57.601Z,12.57
2019-02-24T10:50:07.977Z,12.07
2019-02-24T10:53:16.517Z,11.73
2019-02-24T10:56:25.120Z,12.10
2019-02-24T10:59:33.687Z,12.93
2019-02-24T11:02:42.353Z,12.37
2019-02-24T11:06:01.222Z,12.47
2019-02-24T11:09:10.222Z,12.77
2019-02-24T11:12:18.399Z,12.13
2019-02-24T11:15:27.023Z,11.87
2019-02-24T11:18:35.589Z,13.17
2019-02-24T11:21:44.146Z,12.23
2019-02-24T11:25:02.979Z,13.23
2019-02-24T11:28:11.566Z,12.93
2019-02-24T11:31:20.221Z,12.03
2019-02-24T11:34:28.819Z,12.70
2019-02-24T11:37:37.436Z,13.00
2019-02-24T11:40:46.058Z,12.53
2019-02-24T11:43:54.747Z,13.10
2019-02-24T11:47:13.533Z,13.30
2019-02-24T11:50:22.160Z,12.53
2019-02-24T11:53:30.767Z,12.00
2019-02-24T11:56:39.351Z,12.37
2019-02-24T11:59:48.126Z,13.27
2019-02-24T12:02:56.802Z,12.83
2019-02-24T12:06:05.432Z,13.00
2019-02-24T12:09:14.144Z,12.03
2019-02-24T12:12:35.948Z,11.80
2019-02-24T12:15:44.481Z,12.57
2019-02-24T12:18:52.995Z,12.27
2019-02-24T12:22:01.625Z,12.43
2019-02-24T12:25:20.299Z,12.33
2019-02-24T12:28:30.491Z,13.13
2019-02-24T12:31:39.091Z,11.87
2019-02-24T12:34:47.692Z,12.17
2019-02-24T12:37:56.196Z,13.10
2019-02-24T12:41:04.891Z,12.27
2019-02-24T12:44:23.738Z,11.90
2019-02-24T12:47:32.342Z,15.93
2019-02-24T12:50:41.005Z,14.10
2019-02-24T12:53:49.608Z,12.13
2019-02-24T12:56:58.268Z,12.47
2019-02-24T13:00:11.278Z,14.57
2019-02-24T13:03:30.258Z,13.20
2019-02-24T13:06:38.946Z,13.70
2019-02-24T13:09:48.777Z,12.67
2019-02-24T13:12:57.400Z,12.47
2019-02-24T13:16:05.876Z,11.80
2019-02-24T13:19:24.879Z,10.77
2019-02-24T13:22:33.413Z,10.60
2019-02-24T13:25:42.062Z,10.70
2019-02-24T13:28:50.835Z,9.57
2019-02-24T13:31:59.433Z,12.57
2019-02-24T13:35:09.701Z,14.40
2019-02-24T13:38:18.445Z,14.70
2019-02-24T13:41:26.946Z,15.00
2019-02-24T13:44:45.773Z,14.33
2019-02-24T13:47:54.375Z,13.80
2019-02-24T13:51:02.977Z,13.97
2019-02-24T13:54:11.498Z,13.93
2019-02-24T13:57:19.984Z,13.23
2019-02-24T14:00:38.805Z,13.20
2019-02-24T14:03:47.442Z,14.27
2019-02-24T14:06:56.014Z,13.37
2019-02-24T14:10:05.274Z,13.43
2019-02-24T14:13:13.748Z,14.13
2019-02-24T14:16:22.411Z,13.87
2019-02-24T14:19:31.378Z,12.47
2019-02-24T14:22:40.007Z,12.50
2019-02-24T14:25:48.617Z,11.40
2019-02-24T14:28:55.682Z,11.70
2019-02-24T14:32:04.181Z,11.70
2019-02-24T14:35:14.315Z,10.77
2019-02-24T14:38:22.869Z,12.00
2019-02-24T14:41:31.470Z,11.03
2019-02-24T14:44:41.527Z,11.77
2019-02-24T14:47:51.675Z,11.43
2019-02-24T14:51:00.332Z,10.10
2019-02-24T14:54:08.922Z,11.67
2019-02-24T14:57:27.728Z,10.83
2019-02-24T15:00:36.290Z,11.80
2019-02-24T15:03:44.811Z,11.83
2019-02-24T15:06:53.413Z,11.73
2019-02-24T15:10:02.020Z,12.20
2019-02-24T15:13:10.658Z,10.80
2019-02-24T15:16:29.544Z,9.33
2019-02-24T15:19:38.192Z,9.70
2019-02-24T15:22:46.806Z,10.17
2019-02-24T15:25:55.439Z,9.30
2019-02-24T15:29:04.034Z,10.03
2019-02-24T15:32:12.690Z,9.80
2019-02-24T15:35:21.339Z,9.67
2019-02-24T15:38:40.057Z,9.90
2019-02-24T15:41:48.676Z,10.23
2019-02-24T15:44:57.338Z,10.37
2019-02-24T15:48:05.953Z,11.13
2019-02-24T15:51:14.568Z,10.73
2019-02-24T15:54:23.213Z,10.20
2019-02-24T15:57:31.711Z,10.57
2019-02-24T16:00:50.650Z,10.47
2019-02-24T16:03:59.249Z,12.17
2019-02-24T16:07:07.843Z,10.90
2019-02-24T16:10:18.801Z,10.80
2019-02-24T16:13:27.307Z,10.97
2019-02-24T16:16:35.909Z,10.80
2019-02-24T16:19:44.537Z,10.17
2019-02-24T16:22:53.294Z,10.40
2019-02-24T16:26:01.905Z,11.57
2019-02-24T16:29:10.522Z,10.93
2019-02-24T16:32:19.203Z,10.60
2019-02-24T16:35:37.990Z,10.53
2019-02-24T16:38:46.625Z,10.77
2019-02-24T16:41:55.236Z,11.13
2019-02-24T16:45:05.596Z,10.77
2019-02-24T16:48:14.236Z,11.23
2019-02-24T16:51:28.873Z,11.43
2019-02-24T16:54:52.716Z,11.07
2019-02-24T16:57:58.055Z,11.07
2019-02-24T17:01:06.832Z,10.40
2019-02-24T17:04:29.633Z,10.90
2019-02-24T17:07:38.535Z,10.53
2019-02-24T17:10:48.292Z,9.87
2019-02-24T17:14:07.169Z,10.43
2019-02-24T17:17:15.769Z,11.07
2019-02-24T17:20:24.459Z,10.50
2019-02-24T17:23:32.961Z,9.50
2019-02-24T17:26:41.455Z,10.10
2019-02-24T17:29:50.082Z,10.03
2019-02-24T17:33:08.895Z,10.97
2019-02-24T17:36:17.477Z,10.93
2019-02-24T17:39:26.109Z,10.80
2019-02-24T17:42:34.591Z,10.70
2019-02-24T17:45:44.869Z,11.43
2019-02-24T17:48:53.822Z,11.33
2019-02-24T17:52:02.450Z,11.53
2019-02-24T17:55:16.887Z,11.17
2019-02-24T17:58:25.477Z,10.63
2019-02-24T18:01:34.114Z,10.77
2019-02-24T18:04:42.634Z,10.57
2019-02-24T18:07:52.346Z,10.60
2019-02-24T18:11:01.352Z,10.47
2019-02-24T18:14:20.397Z,10.43
2019-02-24T18:17:28.982Z,10.83
2019-02-24T18:20:37.563Z,10.67
2019-02-24T18:23:46.087Z,11.47
2019-02-24T18:26:54.583Z,11.53
2019-02-24T18:30:03.141Z,11.00
2019-02-24T18:33:22.008Z,10.50
2019-02-24T18:36:30.580Z,11.40
2019-02-24T18:39:39.133Z,11.70
2019-02-24T18:42:47.723Z,11.73
2019-02-24T18:45:56.324Z,10.97
2019-02-24T18:49:15.119Z,10.57
2019-02-24T18:52:23.717Z,10.80
2019-02-24T18:55:32.325Z,10.83
2019-02-24T18:58:40.897Z,10.67
2019-02-24T19:01:49.395Z,11.07
2019-02-24T19:04:57.918Z,11.90
2019-02-24T19:08:16.821Z,11.23
2019-02-24T19:11:25.315Z,12.07
2019-02-24T19:14:33.778Z,11.37
2019-02-24T19:17:42.274Z,11.87
2019-02-24T19:20:50.874Z,12.60
2019-02-24T19:24:09.720Z,12.90
2019-02-24T19:27:18.313Z,12.10
2019-02-24T19:30:26.863Z,12.37
2019-02-24T19:33:35.899Z,12.83
2019-02-24T19:36:44.498Z,13.63
2019-02-24T19:39:53.150Z,12.60
2019-02-24T19:43:02.195Z,12.70
2019-02-24T19:46:10.887Z,13.70
2019-02-24T19:49:19.566Z,14.07
2019-02-24T19:52:29.527Z,14.57
2019-02-24T19:55:48.241Z,13.07
2019-02-24T19:58:56.797Z,13.07
2019-02-24T20:02:05.307Z,14.37
2019-02-24T20:05:13.828Z,13.23
2019-02-24T20:08:22.441Z,13.97
2019-02-24T20:11:41.215Z,14.03
2019-02-24T20:14:49.772Z,15.10
2019-02-24T20:17:58.267Z,13.93
2019-02-24T20:21:07.999Z,14.73
2019-02-24T20:24:26.953Z,14.77
2019-02-24T20:27:35.560Z,14.80
2019-02-24T20:30:44.181Z,13.93
2019-02-24T20:33:52.653Z,14.63
2019-02-24T20:37:01.174Z,15.10
2019-02-24T20:40:19.917Z,15.37
2019-02-24T20:43:28.492Z,14.90
2019-02-24T20:46:36.940Z,15.07
2019-02-24T20:49:45.511Z,14.83
2019-02-24T20:52:53.997Z,14.50
2019-02-24T20:56:12.811Z,15.03
2019-02-24T20:59:21.451Z,15.60
2019-02-24T21:02:29.948Z,15.27
2019-02-24T21:05:38.427Z,14.67
2019-02-24T21:08:47.029Z,14.67
2019-02-24T21:12:05.785Z,15.00
2019-02-24T21:15:15.069Z,16.27
2019-02-24T21:18:34.102Z,15.90
2019-02-24T21:21:42.681Z,14.97
2019-02-24T21:24:51.193Z,15.37
2019-02-24T21:27:59.830Z,14.60
2019-02-24T21:31:08.360Z,15.87
2019-02-24T21:34:16.840Z,15.73
2019-02-24T21:37:35.697Z,15.63
2019-02-24T21:40:44.210Z,15.70
2019-02-24T21:43:52.687Z,16.60
2019-02-24T21:47:01.148Z,16.40
2019-02-24T21:50:19.960Z,16.97
2019-02-24T21:53:28.445Z,18.00
2019-02-24T21:56:36.928Z,18.13
2019-02-24T21:59:45.549Z,17.37
2019-02-24T22:02:54.009Z,17.47
2019-02-24T22:06:12.916Z,17.63
2019-02-24T22:09:21.485Z,17.37
2019-02-24T22:12:29.943Z,18.03
2019-02-24T22:15:38.418Z,18.07
2019-02-24T22:18:47.006Z,17.23
2019-02-24T22:22:05.759Z,18.60
2019-02-24T22:25:14.479Z,17.50
2019-02-24T22:28:23.005Z,18.40
2019-02-24T22:31:31.481Z,18.40
2019-02-24T22:34:39.958Z,18.03
2019-02-24T22:37:58.705Z,17.97
2019-02-24T22:41:07.290Z,18.63
2019-02-24T22:44:15.781Z,18.77
2019-02-24T22:47:24.413Z,18.87
2019-02-24T22:50:32.942Z,18.57
2019-02-24T22:53:53.012Z,17.83
2019-02-24T22:57:01.801Z,18.37
2019-02-24T23:00:54.667Z,18.77
2019-02-24T23:04:15.552Z,19.07
2019-02-24T23:07:34.879Z,17.10
2019-02-24T23:10:43.631Z,17.93
2019-02-24T23:13:50.652Z,18.97
2019-02-24T23:16:59.281Z,18.77
2019-02-24T23:20:08.267Z,18.37
2019-02-24T23:23:16.855Z,17.67
2019-02-24T23:26:25.449Z,18.07
2019-02-24T23:29:35.383Z,18.17
2019-02-24T23:32:54.257Z,18.20
2019-02-24T23:36:02.763Z,16.97
2019-02-24T23:39:16.543Z,18.37
2019-02-24T23:42:25.041Z,18.03
2019-02-24T23:45:33.516Z,17.57
2019-02-24T23:48:42.169Z,18.17
2019-02-24T23:52:00.827Z,19.27
2019-02-24T23:55:09.465Z,17.77
2019-02-24T23:58:18.133Z,18.20
